MROC/SJO METAR and TAF weather

Enter ICAO airport designator
Station Type Date Time Source
MROC METAR 2022/07/01 01:00 UTC NOAA

MROC 010100Z VRB02KT 9999 BKN025 23/18 A3003 NOSIG


Station Type Date Time Source
MROC Decoded METAR 2022/07/01 01:00 UTC NOAA

Juan Santamaria, Costa Rica (MROC) 10-00N 084-13W 939M
Jun 30, 2022 - 09:00 PM EDT / 2022.07.01 0100 UTC
Wind: Variable at 2 MPH (2 KT):0
Visibility: greater than 7 mile(s):0
Sky conditions: mostly cloudy
Temperature: 73 F (23 C)
Dew Point: 64 F (18 C)
Relative Humidity: 73%
Pressure (altimeter): 30.03 in. Hg (1016 hPa)
ob: MROC 010100Z VRB02KT 9999 BKN025 23/18 A3003 NOSIG
cycle: 1

Station Type Date Time Source
MROC TAF 2022/06/30 18:14 UTC NOAA

TAF MROC 301708Z 3018/0118 09010KT 9999 SCT030 SCT120 TX28/3018Z TN19/0111Z
TEMPO 3021/3024 24006KT RA BKN030

Example: see airport list